Zachery Reinauer — WCU4692 — position and weather

sailwx.info

Track history (hours):
 
Tides and Currents Weather Stations Pressure Air Temp Water Temp Dewpoint Dewpoint Depression Visibility Wind Speed Wind Dir Waves Ship Positions

Zachery Reinauer

Owner: REINAUER TRANSPORTATION CO.,LLC, STATEN ISLAND, NY. More information available from US FCC via Universal Licensing System and Coast Guard Vessel Documentation Center.

Last reported at 2017-Sep-25 00:29 UTC. Time now 2017-Sep-25 00:38 UTC.
Position N 40°33' W 074°14'.

Length 30 m; draft 4.4 m.

Type: Tug. MMSI: 366695940.

Date/timePositionNaut miles runAvg speedWind from/ knotsBaromVisibWave heightAir tempDewpointWater temp
2017-Sep-25 00:29N 40°33' W 074°14'2 0.9
2017-Sep-24 22:40N 40°32' W 074°15'0 0.0
2017-Sep-24 22:29N 40°32' W 074°15'0 0.0
2017-Sep-24 21:21N 40°32' W 074°15'0 0.7
2017-Sep-24 20:58N 40°33' W 074°15'1 2.6
2017-Sep-24 20:29N 40°33' W 074°14'2 3.8
2017-Sep-24 19:59N 40°35' W 074°13'0 0.1
2017-Sep-24 19:30N 40°35' W 074°13'1 1.4
2017-Sep-24 18:58N 40°36' W 074°12'0 0.0
2017-Sep-24 18:30N 40°36' W 074°12'0 0.0
2017-Sep-24 18:00N 40°36' W 074°12'0 0.0
2017-Sep-24 17:30N 40°36' W 074°12'0 0.1
2017-Sep-24 17:01N 40°36' W 074°12'1 1.3
2017-Sep-24 16:30N 40°36' W 074°12'0 0.1
2017-Sep-24 16:00N 40°36' W 074°12'0 0.1
2017-Sep-24 15:30N 40°36' W 074°12'1 1.4
2017-Sep-24 14:59N 40°36' W 074°12'0 0.0
2017-Sep-24 14:28N 40°36' W 074°12'0 0.0
2017-Sep-24 13:59N 40°36' W 074°12'0 0.0
2017-Sep-24 13:24N 40°36' W 074°12'1 2.7
2017-Sep-24 12:59N 40°37' W 074°12'1 1.3
2017-Sep-24 12:30N 40°37' W 074°12'2 3.5
2017-Sep-24 12:00N 40°36' W 074°12'0 0.0
2017-Sep-24 11:30N 40°36' W 074°12'0 0.0
2017-Sep-24 11:00N 40°36' W 074°12'0 0.0
2017-Sep-24 10:30N 40°36' W 074°12'0 0.0
2017-Sep-24 10:00N 40°36' W 074°12'1 0.7
2017-Sep-24 09:08N 40°35' W 074°13'1 0.2
2017-Sep-24 05:36N 40°36' W 074°12'0 0.0
2017-Sep-24 05:30N 40°36' W 074°12'0 0.0
2017-Sep-24 05:00N 40°36' W 074°12'3 5.3
2017-Sep-24 04:30N 40°33' W 074°14'0 0.8
2017-Sep-24 04:00N 40°34' W 074°14'3 4.4
2017-Sep-24 03:23N 40°36' W 074°12'0 0.0
2017-Sep-24 03:00N 40°36' W 074°12'0 0.0
2017-Sep-24 02:30N 40°36' W 074°12'0 0.0
2017-Sep-24 01:59N 40°36' W 074°12'0 0.0
2017-Sep-24 01:29N 40°36' W 074°12'0 0.0
2017-Sep-24 01:00N 40°36' W 074°12'0 0.0
2017-Sep-24 00:30N 40°36' W 074°12'1 1.5
2017-Sep-23 23:59N 40°35' W 074°13'0 0.0
2017-Sep-23 23:17N 40°35' W 074°13'1 3.3
2017-Sep-23 22:58N 40°34' W 074°13'20 0.4
2017-Sep-22 01:59N 40°48' W 073°54'0 0.1
2017-Sep-22 01:30N 40°48' W 073°54'510.9
2017-Sep-22 01:01N 40°44' W 073°58'5 9.9
2017-Sep-22 00:31N 40°40' W 074°02'1 2.3
2017-Sep-22 00:00N 40°40' W 074°01'0 0.0
2017-Sep-21 23:31N 40°40' W 074°01'0 0.0
2017-Sep-21 23:00N 40°40' W 074°01'0 0.0
2017-Sep-21 22:31N 40°40' W 074°01'0 0.0
2017-Sep-21 22:00N 40°40' W 074°01'0 0.0
2017-Sep-21 21:31N 40°40' W 074°01'0 0.2
2017-Sep-21 21:01N 40°40' W 074°01'3 6.6
2017-Sep-21 20:31N 40°39' W 074°05'2 4.2
2017-Sep-21 20:00N 40°38' W 074°08'0 0.0
2017-Sep-21 19:30N 40°38' W 074°08'0 0.0
2017-Sep-21 19:01N 40°38' W 074°08'0 0.0
2017-Sep-21 18:29N 40°38' W 074°08'0 0.0
2017-Sep-21 18:01N 40°38' W 074°08'0 0.0
2017-Sep-21 17:30N 40°38' W 074°08'0 0.0
2017-Sep-21 17:00N 40°38' W 074°08'0 0.0
2017-Sep-21 16:31N 40°38' W 074°08'0 0.0
2017-Sep-21 16:01N 40°38' W 074°08'0 0.0
2017-Sep-21 15:31N 40°38' W 074°08'0 0.0
2017-Sep-21 15:01N 40°38' W 074°08'1 1.2
2017-Sep-21 14:30N 40°39' W 074°07'0 0.2
2017-Sep-21 14:00N 40°39' W 074°07'0 0.3
2017-Sep-21 13:30N 40°39' W 074°07'0 0.2
2017-Sep-21 13:00N 40°39' W 074°07'0 0.0
2017-Sep-21 12:21N 40°39' W 074°07'0 0.0
2017-Sep-21 11:50N 40°39' W 074°07'0 0.0
2017-Sep-21 11:30N 40°39' W 074°07'4 8.5
2017-Sep-21 11:01N 40°39' W 074°02'1 2.3
2017-Sep-21 10:31N 40°40' W 074°00'1 2.1
2017-Sep-21 10:00N 40°41' W 074°01'1 2.0
2017-Sep-21 09:31N 40°40' W 074°01'3 6.9
2017-Sep-21 09:01N 40°39' W 074°06'2 3.0
2017-Sep-21 08:30N 40°38' W 074°08'0 0.0
2017-Sep-21 08:00N 40°38' W 074°08'0 0.0
2017-Sep-21 07:30N 40°38' W 074°08'0 0.0
2017-Sep-21 07:00N 40°38' W 074°08'0 0.2
2017-Sep-21 06:30N 40°39' W 074°08'4 8.6
2017-Sep-21 06:01N 40°40' W 074°03'510.3
2017-Sep-21 05:30N 40°44' W 073°58'5 2.1
2017-Sep-21 03:19N 40°48' W 073°55'1 3.3
2017-Sep-21 02:59N 40°47' W 073°55'2 4.5
2017-Sep-21 02:30N 40°45' W 073°57'2 4.1
2017-Sep-21 02:00N 40°43' W 073°58'2 4.0
2017-Sep-21 01:30N 40°42' W 073°60'1 2.5
2017-Sep-21 01:00N 40°42' W 074°02'1 2.5
2017-Sep-21 00:30N 40°44' W 074°01'2 4.8
2017-Sep-21 00:00N 40°46' W 074°00'3 5.0
2017-Sep-20 23:30N 40°48' W 073°59'2 4.5
2017-Sep-20 23:00N 40°50' W 073°57'0 0.5
2017-Sep-20 22:30N 40°50' W 073°57'0 0.7
2017-Sep-20 22:00N 40°50' W 073°58'0 0.2
2017-Sep-20 21:30N 40°50' W 073°58'0 0.6
2017-Sep-20 21:00N 40°50' W 073°58'0 0.3
2017-Sep-20 20:30N 40°50' W 073°58'0 0.1
2017-Sep-20 20:00N 40°50' W 073°58'0 0.1
2017-Sep-20 19:30N 40°50' W 073°58'0 0.1
2017-Sep-20 19:00N 40°50' W 073°58'0 0.1
2017-Sep-20 18:30N 40°50' W 073°58'0 0.0
2017-Sep-20 18:00N 40°50' W 073°58'0 0.0
2017-Sep-20 17:30N 40°50' W 073°58'0 0.0
2017-Sep-20 17:00N 40°50' W 073°58'0 0.0
2017-Sep-20 16:30N 40°50' W 073°58'0 0.1
2017-Sep-20 16:00N 40°50' W 073°58'0 0.4
2017-Sep-20 15:30N 40°50' W 073°58'2 3.3
2017-Sep-20 14:59N 40°48' W 073°59'6 5.8
2017-Sep-20 14:00N 40°43' W 074°02'4 7.6
2017-Sep-20 13:30N 40°39' W 074°03'1 2.7
2017-Sep-20 13:00N 40°39' W 074°05'0 0.1
2017-Sep-20 12:30N 40°39' W 074°05'2 4.0
2017-Sep-20 12:00N 40°38' W 074°08'0 0.0
2017-Sep-20 11:30N 40°38' W 074°08'0 0.0
2017-Sep-20 11:00N 40°38' W 074°08'1 2.9
2017-Sep-20 10:30N 40°39' W 074°09'2 4.3
2017-Sep-20 09:57N 40°38' W 074°12'0 0.0
2017-Sep-20 09:29N 40°38' W 074°12'0 0.1
2017-Sep-20 09:00N 40°38' W 074°12'0 0.1
2017-Sep-20 08:30N 40°38' W 074°12'1 1.4
2017-Sep-20 08:00N 40°38' W 074°12'3 6.3
2017-Sep-20 07:31N 40°38' W 074°08'0 0.0
2017-Sep-20 06:59N 40°38' W 074°08'0 0.0
2017-Sep-20 06:22N 40°38' W 074°08'0 0.0
2017-Sep-20 05:59N 40°38' W 074°08'0 0.0
2017-Sep-20 05:29N 40°38' W 074°08'0 0.0
2017-Sep-20 04:57N 40°38' W 074°08'0 0.0
2017-Sep-20 04:27N 40°38' W 074°08'0 0.0
2017-Sep-20 04:00N 40°38' W 074°08'0 0.0
2017-Sep-20 03:13N 40°38' W 074°08'0 0.0
2017-Sep-20 02:58N 40°38' W 074°08'0 0.0
2017-Sep-20 02:28N 40°38' W 074°08'0 0.0
2017-Sep-20 01:59N 40°38' W 074°08'0 0.0
2017-Sep-20 01:30N 40°38' W 074°08'0 0.0
2017-Sep-20 01:00N 40°38' W 074°08'0 0.0
2017-Sep-20 00:30N 40°38' W 074°08'0 0.0
2017-Sep-19 23:59N 40°38' W 074°08'0 0.0
2017-Sep-19 23:28N 40°38' W 074°08'2 5.2
2017-Sep-19 23:00N 40°39' W 074°11'4 7.8
2017-Sep-19 22:30N 40°35' W 074°13'0 0.0
2017-Sep-19 21:50N 40°35' W 074°13'0 1.2
2017-Sep-19 21:30N 40°35' W 074°12'3 5.6
2017-Sep-19 21:00N 40°38' W 074°12'3 6.5
2017-Sep-19 20:30N 40°39' W 074°08'3 5.4
2017-Sep-19 20:00N 40°38' W 074°04'3 5.7
2017-Sep-19 19:30N 40°40' W 074°01'0 0.6
2017-Sep-19 19:00N 40°40' W 074°01'1 1.5
2017-Sep-19 18:30N 40°40' W 074°02'1 1.5
2017-Sep-19 18:00N 40°40' W 074°01'0 0.0
2017-Sep-19 17:30N 40°40' W 074°01'0 0.0
2017-Sep-19 17:00N 40°40' W 074°01'0 0.0
2017-Sep-19 16:30N 40°40' W 074°01'0 0.0
2017-Sep-19 16:00N 40°40' W 074°01'0 0.0
2017-Sep-19 15:30N 40°40' W 074°01'1 1.2
2017-Sep-19 15:00N 40°40' W 074°02'3 5.6
2017-Sep-19 14:30N 40°39' W 074°05'0 0.0
2017-Sep-19 14:00N 40°39' W 074°05'0 0.0
2017-Sep-19 13:30N 40°39' W 074°05'0 0.0
2017-Sep-19 13:00N 40°39' W 074°05'0 0.0
2017-Sep-19 12:30N 40°39' W 074°05'3 5.5
2017-Sep-19 12:00N 40°40' W 074°02'2 3.1
2017-Sep-19 11:30N 40°42' W 074°00'4 7.7
2017-Sep-19 11:00N 40°45' W 073°58'4 7.3
2017-Sep-19 10:29N 40°48' W 073°55'0 0.0
2017-Sep-19 02:36N 40°48' W 073°54'0 0.2
2017-Sep-19 01:50N 40°48' W 073°54'2 5.6
2017-Sep-19 01:30N 40°47' W 073°56'4 7.4
2017-Sep-19 01:00N 40°43' W 073°58'4 8.0
2017-Sep-19 00:30N 40°41' W 074°02'4 8.0
2017-Sep-19 00:00N 40°39' W 074°06'4 7.5
2017-Sep-18 23:30N 40°38' W 074°12'0 0.4
2017-Sep-18 23:00N 40°39' W 074°11'3 5.6
2017-Sep-18 22:30N 40°38' W 074°08'0 0.0
2017-Sep-18 22:00N 40°38' W 074°08'0 0.0
2017-Sep-18 21:30N 40°38' W 074°08'0 0.0
2017-Sep-18 21:00N 40°38' W 074°08'0 0.0
2017-Sep-18 20:30N 40°38' W 074°08'0 0.0
2017-Sep-18 20:00N 40°38' W 074°08'0 0.0
2017-Sep-18 19:29N 40°38' W 074°08'0 0.1
2017-Sep-18 19:00N 40°38' W 074°08'1 2.5
2017-Sep-18 18:30N 40°39' W 074°06'1 2.5
2017-Sep-18 18:00N 40°38' W 074°08'0 0.0
2017-Sep-18 17:30N 40°38' W 074°08'0 0.0
2017-Sep-18 17:00N 40°38' W 074°08'0 0.0
2017-Sep-18 16:30N 40°38' W 074°08'0 0.0
2017-Sep-18 16:00N 40°38' W 074°08'0 0.0
2017-Sep-18 15:30N 40°38' W 074°08'0 0.0
2017-Sep-18 15:00N 40°38' W 074°08'0 0.0
2017-Sep-18 14:30N 40°38' W 074°08'0 0.0
2017-Sep-18 14:00N 40°38' W 074°08'0 0.0
2017-Sep-18 13:30N 40°38' W 074°08'0 0.0
2017-Sep-18 13:00N 40°38' W 074°08'0 0.0
2017-Sep-18 12:30N 40°38' W 074°08'0 0.0
2017-Sep-18 11:55N 40°38' W 074°08'0 0.0
2017-Sep-18 11:30N 40°38' W 074°08'0 0.0
2017-Sep-18 11:00N 40°38' W 074°08'0 0.0
2017-Sep-18 10:29N 40°38' W 074°08'0 0.0
2017-Sep-18 10:00N 40°38' W 074°08'0 0.1
2017-Sep-18 09:15N 40°38' W 074°08'0 0.0
2017-Sep-18 08:58N 40°38' W 074°08'0 0.0
2017-Sep-18 08:29N 40°38' W 074°08'0 0.0
2017-Sep-18 08:00N 40°38' W 074°08'0 0.0
2017-Sep-18 07:26N 40°38' W 074°08'0 0.0
2017-Sep-18 06:57N 40°38' W 074°08'0 0.0
2017-Sep-18 06:31N 40°38' W 074°08'4 7.0
2017-Sep-18 06:00N 40°37' W 074°12'5 0.7
2017-Sep-17 22:35N 40°32' W 074°15'0 0.4
2017-Sep-17 22:12N 40°32' W 074°15'1 4.3
2017-Sep-17 22:00N 40°33' W 074°15'0 0.4
2017-Sep-17 21:19N 40°33' W 074°14'0 0.0
2017-Sep-17 20:59N 40°33' W 074°14'1 0.0
2017-Sep-16 23:35N 40°33' W 074°15'1 8.7
2017-Sep-16 23:30N 40°33' W 074°14'2 3.6
2017-Sep-16 22:55N 40°35' W 074°12'0 0.3
2017-Sep-16 22:28N 40°35' W 074°13'1 1.3
2017-Sep-16 21:59N 40°36' W 074°12'0 0.0
2017-Sep-16 21:29N 40°36' W 074°12'0 0.0
2017-Sep-16 21:00N 40°36' W 074°12'0 0.0
2017-Sep-16 20:30N 40°36' W 074°12'0 0.0
2017-Sep-16 20:00N 40°36' W 074°12'1 1.2
2017-Sep-16 19:30N 40°36' W 074°12'0 0.4
2017-Sep-16 19:00N 40°37' W 074°12'1 1.4
2017-Sep-16 18:26N 40°36' W 074°12'0 0.0
2017-Sep-16 17:59N 40°36' W 074°12'0 0.0
2017-Sep-16 17:30N 40°36' W 074°12'0 0.0
2017-Sep-16 17:00N 40°36' W 074°12'0 0.0
2017-Sep-16 16:27N 40°36' W 074°12'0 0.0
2017-Sep-16 16:00N 40°36' W 074°12'0 0.0
2017-Sep-16 15:29N 40°36' W 074°12'0 0.0
2017-Sep-16 14:56N 40°36' W 074°12'0 0.0
2017-Sep-16 14:27N 40°36' W 074°12'0 0.0
2017-Sep-16 13:34N 40°36' W 074°12'0 0.0
2017-Sep-16 13:24N 40°36' W 074°12'0 0.0
2017-Sep-16 12:59N 40°36' W 074°12'0 0.0
2017-Sep-16 12:30N 40°36' W 074°12'0 0.0
2017-Sep-16 11:54N 40°36' W 074°12'0 0.0
2017-Sep-16 11:30N 40°36' W 074°12'0 0.0
2017-Sep-16 10:59N 40°36' W 074°12'0 0.0
2017-Sep-16 10:30N 40°36' W 074°12'0 0.0
2017-Sep-16 10:00N 40°36' W 074°12'0 0.0
2017-Sep-16 09:30N 40°36' W 074°12'0 0.0
2017-Sep-16 09:00N 40°36' W 074°12'2 4.4
2017-Sep-16 08:29N 40°38' W 074°12'3 6.9
2017-Sep-16 08:00N 40°38' W 074°08'2 4.2
2017-Sep-16 07:31N 40°39' W 074°05'1 2.5
2017-Sep-16 07:00N 40°39' W 074°07'1 1.7
2017-Sep-16 06:30N 40°38' W 074°08'0 0.0
2017-Sep-16 06:00N 40°38' W 074°08'0 0.0
2017-Sep-16 05:30N 40°38' W 074°08'0 0.0
2017-Sep-16 05:00N 40°38' W 074°08'0 0.0
2017-Sep-16 04:30N 40°38' W 074°08'0 0.0
2017-Sep-16 04:00N 40°38' W 074°08'0 0.0
2017-Sep-16 03:30N 40°38' W 074°08'0 0.0
2017-Sep-16 03:00N 40°38' W 074°08'0 0.0
2017-Sep-16 02:30N 40°38' W 074°08'0 0.4
2017-Sep-16 02:00N 40°39' W 074°08'4 7.5
2017-Sep-16 01:30N 40°42' W 074°07'0 0.2
2017-Sep-16 01:00N 40°42' W 074°07'3 6.6
2017-Sep-16 00:30N 40°39' W 074°09'3 6.1
2017-Sep-16 00:00N 40°39' W 074°05'3 6.1
2017-Sep-15 23:30N 40°40' W 074°01'0 0.2
2017-Sep-15 23:00N 40°40' W 074°01'0 0.0
2017-Sep-15 22:31N 40°40' W 074°01'0 0.1
2017-Sep-15 22:00N 40°40' W 074°01'1 2.0
2017-Sep-15 21:30N 40°40' W 074°02'2 4.5
2017-Sep-15 21:00N 40°39' W 074°05'0 0.0
2017-Sep-15 20:30N 40°39' W 074°05'2 4.1
2017-Sep-15 20:00N 40°40' W 074°03'2 3.2
2017-Sep-15 19:30N 40°42' W 074°02'2 3.1
2017-Sep-15 19:00N 40°40' W 074°01'0 0.0
2017-Sep-15 18:30N 40°40' W 074°01'0 0.0
2017-Sep-15 18:00N 40°40' W 074°01'0 0.0
2017-Sep-15 17:30N 40°40' W 074°01'0 0.0
2017-Sep-15 17:00N 40°40' W 074°01'2 4.5
2017-Sep-15 16:30N 40°40' W 074°04'2 4.1
2017-Sep-15 16:00N 40°39' W 074°06'1 2.3
2017-Sep-15 15:30N 40°38' W 074°08'0 0.0
2017-Sep-15 15:00N 40°38' W 074°08'0 0.0
2017-Sep-15 14:30N 40°38' W 074°08'0 0.0
2017-Sep-15 13:59N 40°38' W 074°08'0 0.0
2017-Sep-15 13:30N 40°38' W 074°08'0 0.0
2017-Sep-15 13:00N 40°38' W 074°08'0 0.0
2017-Sep-15 12:30N 40°38' W 074°08'0 0.0
2017-Sep-15 12:00N 40°38' W 074°08'0 0.0
2017-Sep-15 11:30N 40°38' W 074°08'0 0.0
2017-Sep-15 11:00N 40°38' W 074°08'0 0.0
2017-Sep-15 10:30N 40°38' W 074°08'0 0.0
2017-Sep-15 10:00N 40°38' W 074°08'0 0.0
2017-Sep-15 09:30N 40°38' W 074°08'0 0.0
2017-Sep-15 08:43N 40°38' W 074°08'1 3.2
2017-Sep-15 08:30N 40°39' W 074°07'1 2.9
2017-Sep-15 08:00N 40°39' W 074°05'0 0.1
2017-Sep-15 07:31N 40°39' W 074°05'1 1.4
2017-Sep-15 07:00N 40°39' W 074°06'2 3.1
2017-Sep-15 06:31N 40°39' W 074°08'4 7.4
2017-Sep-15 06:00N 40°37' W 074°12'1 0.6
2017-Sep-15 04:22N 40°36' W 074°12'0 0.0
2017-Sep-15 03:59N 40°36' W 074°12'0 0.0
2017-Sep-15 03:26N 40°36' W 074°12'0 0.0
2017-Sep-15 02:55N 40°36' W 074°12'0 0.0
2017-Sep-15 02:21N 40°36' W 074°12'1 2.2
2017-Sep-15 01:59N 40°37' W 074°12'0 0.0
2017-Sep-15 01:30N 40°37' W 074°12'0 0.5
2017-Sep-15 00:57N 40°37' W 074°12'3 7.0
2017-Sep-15 00:30N 40°39' W 074°09'  
Track history (hours):
 
Tides and Currents Weather Stations Pressure Air Temp Water Temp Dewpoint Dewpoint Depression Visibility Wind Speed Wind Dir Waves Ship Positions

Zachery Reinauer

Owner: REINAUER TRANSPORTATION CO.,LLC, STATEN ISLAND, NY. More information available from US FCC via Universal Licensing System and Coast Guard Vessel Documentation Center.

Last reported at 2017-Sep-25 00:29 UTC. Time now 2017-Sep-25 00:38 UTC.
Position N 40°33' W 074°14'.

Length 30 m; draft 4.4 m.

Type: Tug. MMSI: 366695940.

Date/timePositionNaut miles runAvg speedWind from/ knotsBaromVisibWave heightAir tempDewpointWater temp
2017-Sep-25 00:29N 40°33' W 074°14'2 0.9
2017-Sep-24 22:40N 40°32' W 074°15'0 0.0
2017-Sep-24 22:29N 40°32' W 074°15'0 0.0
2017-Sep-24 21:21N 40°32' W 074°15'0 0.7
2017-Sep-24 20:58N 40°33' W 074°15'1 2.6
2017-Sep-24 20:29N 40°33' W 074°14'2 3.8
2017-Sep-24 19:59N 40°35' W 074°13'0 0.1
2017-Sep-24 19:30N 40°35' W 074°13'1 1.4
2017-Sep-24 18:58N 40°36' W 074°12'0 0.0
2017-Sep-24 18:30N 40°36' W 074°12'0 0.0
2017-Sep-24 18:00N 40°36' W 074°12'0 0.0
2017-Sep-24 17:30N 40°36' W 074°12'0 0.1
2017-Sep-24 17:01N 40°36' W 074°12'1 1.3
2017-Sep-24 16:30N 40°36' W 074°12'0 0.1
2017-Sep-24 16:00N 40°36' W 074°12'0 0.1
2017-Sep-24 15:30N 40°36' W 074°12'1 1.4
2017-Sep-24 14:59N 40°36' W 074°12'0 0.0
2017-Sep-24 14:28N 40°36' W 074°12'0 0.0
2017-Sep-24 13:59N 40°36' W 074°12'0 0.0
2017-Sep-24 13:24N 40°36' W 074°12'1 2.7
2017-Sep-24 12:59N 40°37' W 074°12'1 1.3
2017-Sep-24 12:30N 40°37' W 074°12'2 3.5
2017-Sep-24 12:00N 40°36' W 074°12'0 0.0
2017-Sep-24 11:30N 40°36' W 074°12'0 0.0
2017-Sep-24 11:00N 40°36' W 074°12'0 0.0
2017-Sep-24 10:30N 40°36' W 074°12'0 0.0
2017-Sep-24 10:00N 40°36' W 074°12'1 0.7
2017-Sep-24 09:08N 40°35' W 074°13'1 0.2
2017-Sep-24 05:36N 40°36' W 074°12'0 0.0
2017-Sep-24 05:30N 40°36' W 074°12'0 0.0
2017-Sep-24 05:00N 40°36' W 074°12'3 5.3
2017-Sep-24 04:30N 40°33' W 074°14'0 0.8
2017-Sep-24 04:00N 40°34' W 074°14'3 4.4
2017-Sep-24 03:23N 40°36' W 074°12'0 0.0
2017-Sep-24 03:00N 40°36' W 074°12'0 0.0
2017-Sep-24 02:30N 40°36' W 074°12'0 0.0
2017-Sep-24 01:59N 40°36' W 074°12'0 0.0
2017-Sep-24 01:29N 40°36' W 074°12'0 0.0
2017-Sep-24 01:00N 40°36' W 074°12'0 0.0
2017-Sep-24 00:30N 40°36' W 074°12'1 1.5
2017-Sep-23 23:59N 40°35' W 074°13'0 0.0
2017-Sep-23 23:17N 40°35' W 074°13'1 3.3
2017-Sep-23 22:58N 40°34' W 074°13'20 0.4
2017-Sep-22 01:59N 40°48' W 073°54'0 0.1
2017-Sep-22 01:30N 40°48' W 073°54'510.9
2017-Sep-22 01:01N 40°44' W 073°58'5 9.9
2017-Sep-22 00:31N 40°40' W 074°02'1 2.3
2017-Sep-22 00:00N 40°40' W 074°01'0 0.0
2017-Sep-21 23:31N 40°40' W 074°01'0 0.0
2017-Sep-21 23:00N 40°40' W 074°01'0 0.0
2017-Sep-21 22:31N 40°40' W 074°01'0 0.0
2017-Sep-21 22:00N 40°40' W 074°01'0 0.0
2017-Sep-21 21:31N 40°40' W 074°01'0 0.2
2017-Sep-21 21:01N 40°40' W 074°01'3 6.6
2017-Sep-21 20:31N 40°39' W 074°05'2 4.2
2017-Sep-21 20:00N 40°38' W 074°08'0 0.0
2017-Sep-21 19:30N 40°38' W 074°08'0 0.0
2017-Sep-21 19:01N 40°38' W 074°08'0 0.0
2017-Sep-21 18:29N 40°38' W 074°08'0 0.0
2017-Sep-21 18:01N 40°38' W 074°08'0 0.0
2017-Sep-21 17:30N 40°38' W 074°08'0 0.0
2017-Sep-21 17:00N 40°38' W 074°08'0 0.0
2017-Sep-21 16:31N 40°38' W 074°08'0 0.0
2017-Sep-21 16:01N 40°38' W 074°08'0 0.0
2017-Sep-21 15:31N 40°38' W 074°08'0 0.0
2017-Sep-21 15:01N 40°38' W 074°08'1 1.2
2017-Sep-21 14:30N 40°39' W 074°07'0 0.2
2017-Sep-21 14:00N 40°39' W 074°07'0 0.3
2017-Sep-21 13:30N 40°39' W 074°07'0 0.2
2017-Sep-21 13:00N 40°39' W 074°07'0 0.0
2017-Sep-21 12:21N 40°39' W 074°07'0 0.0
2017-Sep-21 11:50N 40°39' W 074°07'0 0.0
2017-Sep-21 11:30N 40°39' W 074°07'4 8.5
2017-Sep-21 11:01N 40°39' W 074°02'1 2.3
2017-Sep-21 10:31N 40°40' W 074°00'1 2.1
2017-Sep-21 10:00N 40°41' W 074°01'1 2.0
2017-Sep-21 09:31N 40°40' W 074°01'3 6.9
2017-Sep-21 09:01N 40°39' W 074°06'2 3.0
2017-Sep-21 08:30N 40°38' W 074°08'0 0.0
2017-Sep-21 08:00N 40°38' W 074°08'0 0.0
2017-Sep-21 07:30N 40°38' W 074°08'0 0.0
2017-Sep-21 07:00N 40°38' W 074°08'0 0.2
2017-Sep-21 06:30N 40°39' W 074°08'4 8.6
2017-Sep-21 06:01N 40°40' W 074°03'510.3
2017-Sep-21 05:30N 40°44' W 073°58'5 2.1
2017-Sep-21 03:19N 40°48' W 073°55'1 3.3
2017-Sep-21 02:59N 40°47' W 073°55'2 4.5
2017-Sep-21 02:30N 40°45' W 073°57'2 4.1
2017-Sep-21 02:00N 40°43' W 073°58'2 4.0
2017-Sep-21 01:30N 40°42' W 073°60'1 2.5
2017-Sep-21 01:00N 40°42' W 074°02'1 2.5
2017-Sep-21 00:30N 40°44' W 074°01'2 4.8
2017-Sep-21 00:00N 40°46' W 074°00'3 5.0
2017-Sep-20 23:30N 40°48' W 073°59'2 4.5
2017-Sep-20 23:00N 40°50' W 073°57'0 0.5
2017-Sep-20 22:30N 40°50' W 073°57'0 0.7
2017-Sep-20 22:00N 40°50' W 073°58'0 0.2
2017-Sep-20 21:30N 40°50' W 073°58'0 0.6
2017-Sep-20 21:00N 40°50' W 073°58'0 0.3
2017-Sep-20 20:30N 40°50' W 073°58'0 0.1
2017-Sep-20 20:00N 40°50' W 073°58'0 0.1
2017-Sep-20 19:30N 40°50' W 073°58'0 0.1
2017-Sep-20 19:00N 40°50' W 073°58'0 0.1
2017-Sep-20 18:30N 40°50' W 073°58'0 0.0
2017-Sep-20 18:00N 40°50' W 073°58'0 0.0
2017-Sep-20 17:30N 40°50' W 073°58'0 0.0
2017-Sep-20 17:00N 40°50' W 073°58'0 0.0
2017-Sep-20 16:30N 40°50' W 073°58'0 0.1
2017-Sep-20 16:00N 40°50' W 073°58'0 0.4
2017-Sep-20 15:30N 40°50' W 073°58'2 3.3
2017-Sep-20 14:59N 40°48' W 073°59'6 5.8
2017-Sep-20 14:00N 40°43' W 074°02'4 7.6
2017-Sep-20 13:30N 40°39' W 074°03'1 2.7
2017-Sep-20 13:00N 40°39' W 074°05'0 0.1
2017-Sep-20 12:30N 40°39' W 074°05'2 4.0
2017-Sep-20 12:00N 40°38' W 074°08'0 0.0
2017-Sep-20 11:30N 40°38' W 074°08'0 0.0
2017-Sep-20 11:00N 40°38' W 074°08'1 2.9
2017-Sep-20 10:30N 40°39' W 074°09'2 4.3
2017-Sep-20 09:57N 40°38' W 074°12'0 0.0
2017-Sep-20 09:29N 40°38' W 074°12'0 0.1
2017-Sep-20 09:00N 40°38' W 074°12'0 0.1
2017-Sep-20 08:30N 40°38' W 074°12'1 1.4
2017-Sep-20 08:00N 40°38' W 074°12'3 6.3
2017-Sep-20 07:31N 40°38' W 074°08'0 0.0
2017-Sep-20 06:59N 40°38' W 074°08'0 0.0
2017-Sep-20 06:22N 40°38' W 074°08'0 0.0
2017-Sep-20 05:59N 40°38' W 074°08'0 0.0
2017-Sep-20 05:29N 40°38' W 074°08'0 0.0
2017-Sep-20 04:57N 40°38' W 074°08'0 0.0
2017-Sep-20 04:27N 40°38' W 074°08'0 0.0
2017-Sep-20 04:00N 40°38' W 074°08'0 0.0
2017-Sep-20 03:13N 40°38' W 074°08'0 0.0
2017-Sep-20 02:58N 40°38' W 074°08'0 0.0
2017-Sep-20 02:28N 40°38' W 074°08'0 0.0
2017-Sep-20 01:59N 40°38' W 074°08'0 0.0
2017-Sep-20 01:30N 40°38' W 074°08'0 0.0
2017-Sep-20 01:00N 40°38' W 074°08'0 0.0
2017-Sep-20 00:30N 40°38' W 074°08'0 0.0
2017-Sep-19 23:59N 40°38' W 074°08'0 0.0
2017-Sep-19 23:28N 40°38' W 074°08'2 5.2
2017-Sep-19 23:00N 40°39' W 074°11'4 7.8
2017-Sep-19 22:30N 40°35' W 074°13'0 0.0
2017-Sep-19 21:50N 40°35' W 074°13'0 1.2
2017-Sep-19 21:30N 40°35' W 074°12'3 5.6
2017-Sep-19 21:00N 40°38' W 074°12'3 6.5
2017-Sep-19 20:30N 40°39' W 074°08'3 5.4
2017-Sep-19 20:00N 40°38' W 074°04'3 5.7
2017-Sep-19 19:30N 40°40' W 074°01'0 0.6
2017-Sep-19 19:00N 40°40' W 074°01'1 1.5
2017-Sep-19 18:30N 40°40' W 074°02'1 1.5
2017-Sep-19 18:00N 40°40' W 074°01'0 0.0
2017-Sep-19 17:30N 40°40' W 074°01'0 0.0
2017-Sep-19 17:00N 40°40' W 074°01'0 0.0
2017-Sep-19 16:30N 40°40' W 074°01'0 0.0
2017-Sep-19 16:00N 40°40' W 074°01'0 0.0
2017-Sep-19 15:30N 40°40' W 074°01'1 1.2
2017-Sep-19 15:00N 40°40' W 074°02'3 5.6
2017-Sep-19 14:30N 40°39' W 074°05'0 0.0
2017-Sep-19 14:00N 40°39' W 074°05'0 0.0
2017-Sep-19 13:30N 40°39' W 074°05'0 0.0
2017-Sep-19 13:00N 40°39' W 074°05'0 0.0
2017-Sep-19 12:30N 40°39' W 074°05'3 5.5
2017-Sep-19 12:00N 40°40' W 074°02'2 3.1
2017-Sep-19 11:30N 40°42' W 074°00'4 7.7
2017-Sep-19 11:00N 40°45' W 073°58'4 7.3
2017-Sep-19 10:29N 40°48' W 073°55'0 0.0
2017-Sep-19 02:36N 40°48' W 073°54'0 0.2
2017-Sep-19 01:50N 40°48' W 073°54'2 5.6
2017-Sep-19 01:30N 40°47' W 073°56'4 7.4
2017-Sep-19 01:00N 40°43' W 073°58'4 8.0
2017-Sep-19 00:30N 40°41' W 074°02'4 8.0
2017-Sep-19 00:00N 40°39' W 074°06'4 7.5
2017-Sep-18 23:30N 40°38' W 074°12'0 0.4
2017-Sep-18 23:00N 40°39' W 074°11'3 5.6
2017-Sep-18 22:30N 40°38' W 074°08'0 0.0
2017-Sep-18 22:00N 40°38' W 074°08'0 0.0
2017-Sep-18 21:30N 40°38' W 074°08'0 0.0
2017-Sep-18 21:00N 40°38' W 074°08'0 0.0
2017-Sep-18 20:30N 40°38' W 074°08'0 0.0
2017-Sep-18 20:00N 40°38' W 074°08'0 0.0
2017-Sep-18 19:29N 40°38' W 074°08'0 0.1
2017-Sep-18 19:00N 40°38' W 074°08'1 2.5
2017-Sep-18 18:30N 40°39' W 074°06'1 2.5
2017-Sep-18 18:00N 40°38' W 074°08'0 0.0
2017-Sep-18 17:30N 40°38' W 074°08'0 0.0
2017-Sep-18 17:00N 40°38' W 074°08'0 0.0
2017-Sep-18 16:30N 40°38' W 074°08'0 0.0
2017-Sep-18 16:00N 40°38' W 074°08'0 0.0
2017-Sep-18 15:30N 40°38' W 074°08'0 0.0
2017-Sep-18 15:00N 40°38' W 074°08'0 0.0
2017-Sep-18 14:30N 40°38' W 074°08'0 0.0
2017-Sep-18 14:00N 40°38' W 074°08'0 0.0
2017-Sep-18 13:30N 40°38' W 074°08'0 0.0
2017-Sep-18 13:00N 40°38' W 074°08'0 0.0
2017-Sep-18 12:30N 40°38' W 074°08'0 0.0
2017-Sep-18 11:55N 40°38' W 074°08'0 0.0
2017-Sep-18 11:30N 40°38' W 074°08'0 0.0
2017-Sep-18 11:00N 40°38' W 074°08'0 0.0
2017-Sep-18 10:29N 40°38' W 074°08'0 0.0
2017-Sep-18 10:00N 40°38' W 074°08'0 0.1
2017-Sep-18 09:15N 40°38' W 074°08'0 0.0
2017-Sep-18 08:58N 40°38' W 074°08'0 0.0
2017-Sep-18 08:29N 40°38' W 074°08'0 0.0
2017-Sep-18 08:00N 40°38' W 074°08'0 0.0
2017-Sep-18 07:26N 40°38' W 074°08'0 0.0
2017-Sep-18 06:57N 40°38' W 074°08'0 0.0
2017-Sep-18 06:31N 40°38' W 074°08'4 7.0
2017-Sep-18 06:00N 40°37' W 074°12'5 0.7
2017-Sep-17 22:35N 40°32' W 074°15'0 0.4
2017-Sep-17 22:12N 40°32' W 074°15'1 4.3
2017-Sep-17 22:00N 40°33' W 074°15'0 0.4
2017-Sep-17 21:19N 40°33' W 074°14'0 0.0
2017-Sep-17 20:59N 40°33' W 074°14'1 0.0
2017-Sep-16 23:35N 40°33' W 074°15'1 8.7
2017-Sep-16 23:30N 40°33' W 074°14'2 3.6
2017-Sep-16 22:55N 40°35' W 074°12'0 0.3
2017-Sep-16 22:28N 40°35' W 074°13'1 1.3
2017-Sep-16 21:59N 40°36' W 074°12'0 0.0
2017-Sep-16 21:29N 40°36' W 074°12'0 0.0
2017-Sep-16 21:00N 40°36' W 074°12'0 0.0
2017-Sep-16 20:30N 40°36' W 074°12'0 0.0
2017-Sep-16 20:00N 40°36' W 074°12'1 1.2
2017-Sep-16 19:30N 40°36' W 074°12'0 0.4
2017-Sep-16 19:00N 40°37' W 074°12'1 1.4
2017-Sep-16 18:26N 40°36' W 074°12'0 0.0
2017-Sep-16 17:59N 40°36' W 074°12'0 0.0
2017-Sep-16 17:30N 40°36' W 074°12'0 0.0
2017-Sep-16 17:00N 40°36' W 074°12'0 0.0
2017-Sep-16 16:27N 40°36' W 074°12'0 0.0
2017-Sep-16 16:00N 40°36' W 074°12'0 0.0
2017-Sep-16 15:29N 40°36' W 074°12'0 0.0
2017-Sep-16 14:56N 40°36' W 074°12'0 0.0
2017-Sep-16 14:27N 40°36' W 074°12'0 0.0
2017-Sep-16 13:34N 40°36' W 074°12'0 0.0
2017-Sep-16 13:24N 40°36' W 074°12'0 0.0
2017-Sep-16 12:59N 40°36' W 074°12'0 0.0
2017-Sep-16 12:30N 40°36' W 074°12'0 0.0
2017-Sep-16 11:54N 40°36' W 074°12'0 0.0
2017-Sep-16 11:30N 40°36' W 074°12'0 0.0
2017-Sep-16 10:59N 40°36' W 074°12'0 0.0
2017-Sep-16 10:30N 40°36' W 074°12'0 0.0
2017-Sep-16 10:00N 40°36' W 074°12'0 0.0
2017-Sep-16 09:30N 40°36' W 074°12'0 0.0
2017-Sep-16 09:00N 40°36' W 074°12'2 4.4
2017-Sep-16 08:29N 40°38' W 074°12'3 6.9
2017-Sep-16 08:00N 40°38' W 074°08'2 4.2
2017-Sep-16 07:31N 40°39' W 074°05'1 2.5
2017-Sep-16 07:00N 40°39' W 074°07'1 1.7
2017-Sep-16 06:30N 40°38' W 074°08'0 0.0
2017-Sep-16 06:00N 40°38' W 074°08'0 0.0
2017-Sep-16 05:30N 40°38' W 074°08'0 0.0
2017-Sep-16 05:00N 40°38' W 074°08'0 0.0
2017-Sep-16 04:30N 40°38' W 074°08'0 0.0
2017-Sep-16 04:00N 40°38' W 074°08'0 0.0
2017-Sep-16 03:30N 40°38' W 074°08'0 0.0
2017-Sep-16 03:00N 40°38' W 074°08'0 0.0
2017-Sep-16 02:30N 40°38' W 074°08'0 0.4
2017-Sep-16 02:00N 40°39' W 074°08'4 7.5
2017-Sep-16 01:30N 40°42' W 074°07'0 0.2
2017-Sep-16 01:00N 40°42' W 074°07'3 6.6
2017-Sep-16 00:30N 40°39' W 074°09'3 6.1
2017-Sep-16 00:00N 40°39' W 074°05'3 6.1
2017-Sep-15 23:30N 40°40' W 074°01'0 0.2
2017-Sep-15 23:00N 40°40' W 074°01'0 0.0
2017-Sep-15 22:31N 40°40' W 074°01'0 0.1
2017-Sep-15 22:00N 40°40' W 074°01'1 2.0
2017-Sep-15 21:30N 40°40' W 074°02'2 4.5
2017-Sep-15 21:00N 40°39' W 074°05'0 0.0
2017-Sep-15 20:30N 40°39' W 074°05'2 4.1
2017-Sep-15 20:00N 40°40' W 074°03'2 3.2
2017-Sep-15 19:30N 40°42' W 074°02'2 3.1
2017-Sep-15 19:00N 40°40' W 074°01'0 0.0
2017-Sep-15 18:30N 40°40' W 074°01'0 0.0
2017-Sep-15 18:00N 40°40' W 074°01'0 0.0
2017-Sep-15 17:30N 40°40' W 074°01'0 0.0
2017-Sep-15 17:00N 40°40' W 074°01'2 4.5
2017-Sep-15 16:30N 40°40' W 074°04'2 4.1
2017-Sep-15 16:00N 40°39' W 074°06'1 2.3
2017-Sep-15 15:30N 40°38' W 074°08'0 0.0
2017-Sep-15 15:00N 40°38' W 074°08'0 0.0
2017-Sep-15 14:30N 40°38' W 074°08'0 0.0
2017-Sep-15 13:59N 40°38' W 074°08'0 0.0
2017-Sep-15 13:30N 40°38' W 074°08'0 0.0
2017-Sep-15 13:00N 40°38' W 074°08'0 0.0
2017-Sep-15 12:30N 40°38' W 074°08'0 0.0
2017-Sep-15 12:00N 40°38' W 074°08'0 0.0
2017-Sep-15 11:30N 40°38' W 074°08'0 0.0
2017-Sep-15 11:00N 40°38' W 074°08'0 0.0
2017-Sep-15 10:30N 40°38' W 074°08'0 0.0
2017-Sep-15 10:00N 40°38' W 074°08'0 0.0
2017-Sep-15 09:30N 40°38' W 074°08'0 0.0
2017-Sep-15 08:43N 40°38' W 074°08'1 3.2
2017-Sep-15 08:30N 40°39' W 074°07'1 2.9
2017-Sep-15 08:00N 40°39' W 074°05'0 0.1
2017-Sep-15 07:31N 40°39' W 074°05'1 1.4
2017-Sep-15 07:00N 40°39' W 074°06'2 3.1
2017-Sep-15 06:31N 40°39' W 074°08'4 7.4
2017-Sep-15 06:00N 40°37' W 074°12'1 0.6
2017-Sep-15 04:22N 40°36' W 074°12'0 0.0
2017-Sep-15 03:59N 40°36' W 074°12'0 0.0
2017-Sep-15 03:26N 40°36' W 074°12'0 0.0
2017-Sep-15 02:55N 40°36' W 074°12'0 0.0
2017-Sep-15 02:21N 40°36' W 074°12'1 2.2
2017-Sep-15 01:59N 40°37' W 074°12'0 0.0
2017-Sep-15 01:30N 40°37' W 074°12'0 0.5
2017-Sep-15 00:57N 40°37' W 074°12'3 7.0
2017-Sep-15 00:30N 40°39' W 074°09'  

Dump ship's entire track history